sensor_id;sensor_type;location;lat;lon;timestamp;temperature;humidity
48728;DHT22;34527;45.618;5.130;2022-12-17T00:01:58;0.00;99.90
48728;DHT22;34527;45.618;5.130;2022-12-17T00:04:42;0.00;99.90
48728;DHT22;34527;45.618;5.130;2022-12-17T00:07:26;-0.10;99.90
48728;DHT22;34527;45.618;5.130;2022-12-17T00:10:10;0.00;99.90
48728;DHT22;34527;45.618;5.130;2022-12-17T00:12:55;-0.10;99.90
48728;DHT22;34527;45.618;5.130;2022-12-17T00:15:39;0.00;99.90
48728;DHT22;34527;45.618;5.130;2022-12-17T00:18:24;-0.10;99.90
48728;DHT22;34527;45.618;5.130;2022-12-17T00:21:09;-0.10;99.90
48728;DHT22;34527;45.618;5.130;2022-12-17T00:23:54;-0.20;99.90
48728;DHT22;34527;45.618;5.130;2022-12-17T00:26:38;-0.10;99.90
48728;DHT22;34527;45.618;5.130;2022-12-17T00:29:23;-0.20;99.90
48728;DHT22;34527;45.618;5.130;2022-12-17T00:32:07;-0.20;99.90
48728;DHT22;34527;45.618;5.130;2022-12-17T00:34:52;-0.20;99.90
48728;DHT22;34527;45.618;5.130;2022-12-17T00:37:36;-0.20;99.90
48728;DHT22;34527;45.618;5.130;2022-12-17T00:40:21;-0.20;99.90
48728;DHT22;34527;45.618;5.130;2022-12-17T00:43:14;-0.30;99.90
48728;DHT22;34527;45.618;5.130;2022-12-17T00:45:58;-0.30;99.90
48728;DHT22;34527;45.618;5.130;2022-12-17T00:48:43;-0.20;99.90
48728;DHT22;34527;45.618;5.130;2022-12-17T00:51:27;-0.30;99.90
48728;DHT22;34527;45.618;5.130;2022-12-17T00:54:12;-0.20;99.90
48728;DHT22;34527;45.618;5.130;2022-12-17T00:56:56;-0.20;99.90
48728;DHT22;34527;45.618;5.130;2022-12-17T00:59:41;-0.20;99.90
48728;DHT22;34527;45.618;5.130;2022-12-17T01:02:25;-0.30;99.90
48728;DHT22;34527;45.618;5.130;2022-12-17T01:05:10;-0.30;99.90
48728;DHT22;34527;45.618;5.130;2022-12-17T01:07:55;-0.30;99.90
48728;DHT22;34527;45.618;5.130;2022-12-17T01:10:39;-0.30;99.90
48728;DHT22;34527;45.618;5.130;2022-12-17T01:13:23;-0.40;99.90
48728;DHT22;34527;45.618;5.130;2022-12-17T01:16:10;-0.40;99.90
48728;DHT22;34527;45.618;5.130;2022-12-17T01:18:55;-0.30;99.90
48728;DHT22;34527;45.618;5.130;2022-12-17T01:21:40;-0.30;99.90
48728;DHT22;34527;45.618;5.130;2022-12-17T01:24:25;-0.30;99.90
48728;DHT22;34527;45.618;5.130;2022-12-17T01:27:09;-0.40;99.90
48728;DHT22;34527;45.618;5.130;2022-12-17T01:29:53;-0.40;99.90
48728;DHT22;34527;45.618;5.130;2022-12-17T01:32:37;-0.40;99.90
48728;DHT22;34527;45.618;5.130;2022-12-17T01:35:22;-0.40;99.90
48728;DHT22;34527;45.618;5.130;2022-12-17T01:38:10;-0.40;99.90
48728;DHT22;34527;45.618;5.130;2022-12-17T01:40:55;-0.50;99.90
48728;DHT22;34527;45.618;5.130;2022-12-17T01:43:39;-0.50;99.90
48728;DHT22;34527;45.618;5.130;2022-12-17T01:46:24;-0.60;99.90
48728;DHT22;34527;45.618;5.130;2022-12-17T01:49:10;-0.50;99.90
48728;DHT22;34527;45.618;5.130;2022-12-17T01:51:56;-0.60;99.90
48728;DHT22;34527;45.618;5.130;2022-12-17T01:54:41;-0.60;99.90
48728;DHT22;34527;45.618;5.130;2022-12-17T01:57:26;-0.60;99.90
48728;DHT22;34527;45.618;5.130;2022-12-17T02:00:13;-0.60;99.90
48728;DHT22;34527;45.618;5.130;2022-12-17T02:02:58;-0.70;99.90
48728;DHT22;34527;45.618;5.130;2022-12-17T02:12:23;-0.70;99.90
48728;DHT22;34527;45.618;5.130;2022-12-17T02:15:31;-0.70;99.90
48728;DHT22;34527;45.618;5.130;2022-12-17T02:18:20;-0.70;99.90
48728;DHT22;34527;45.618;5.130;2022-12-17T02:21:06;-0.60;99.90
48728;DHT22;34527;45.618;5.130;2022-12-17T02:24:13;-0.70;99.90
48728;DHT22;34527;45.618;5.130;2022-12-17T02:27:03;-0.70;99.90
48728;DHT22;34527;45.618;5.130;2022-12-17T02:29:52;-0.80;99.90
48728;DHT22;34527;45.618;5.130;2022-12-17T02:32:40;-0.70;99.90
48728;DHT22;34527;45.618;5.130;2022-12-17T02:35:29;-0.80;99.90
48728;DHT22;34527;45.618;5.130;2022-12-17T02:38:27;-0.80;99.90
48728;DHT22;34527;45.618;5.130;2022-12-17T02:41:23;-0.80;99.90
48728;DHT22;34527;45.618;5.130;2022-12-17T02:44:10;-0.80;99.90
48728;DHT22;34527;45.618;5.130;2022-12-17T02:46:56;-0.90;99.90
48728;DHT22;34527;45.618;5.130;2022-12-17T02:49:41;-0.90;99.90
48728;DHT22;34527;45.618;5.130;2022-12-17T02:52:25;-1.00;99.90
48728;DHT22;34527;45.618;5.130;2022-12-17T02:55:10;-1.00;99.90
48728;DHT22;34527;45.618;5.130;2022-12-17T02:57:54;-1.00;99.90
48728;DHT22;34527;45.618;5.130;2022-12-17T03:00:38;-1.00;99.90
48728;DHT22;34527;45.618;5.130;2022-12-17T03:03:23;-1.00;99.90
48728;DHT22;34527;45.618;5.130;2022-12-17T03:06:07;-1.00;99.90
48728;DHT22;34527;45.618;5.130;2022-12-17T03:08:51;-1.00;99.90
48728;DHT22;34527;45.618;5.130;2022-12-17T03:11:35;-1.00;99.90
48728;DHT22;34527;45.618;5.130;2022-12-17T03:14:19;-1.10;99.90
48728;DHT22;34527;45.618;5.130;2022-12-17T03:17:04;-1.10;99.90
48728;DHT22;34527;45.618;5.130;2022-12-17T03:19:48;-1.10;99.90
48728;DHT22;34527;45.618;5.130;2022-12-17T03:22:32;-1.10;99.90
48728;DHT22;34527;45.618;5.130;2022-12-17T03:25:16;-1.10;99.90
48728;DHT22;34527;45.618;5.130;2022-12-17T03:28:05;-1.20;99.90
48728;DHT22;34527;45.618;5.130;2022-12-17T03:30:50;-1.30;99.90
48728;DHT22;34527;45.618;5.130;2022-12-17T03:33:34;-1.30;99.90
48728;DHT22;34527;45.618;5.130;2022-12-17T03:36:18;-1.20;99.90
48728;DHT22;34527;45.618;5.130;2022-12-17T03:39:02;-1.20;99.90
48728;DHT22;34527;45.618;5.130;2022-12-17T03:41:47;-1.20;99.90
48728;DHT22;34527;45.618;5.130;2022-12-17T03:44:31;-1.20;99.90
48728;DHT22;34527;45.618;5.130;2022-12-17T03:47:15;-1.20;99.90
48728;DHT22;34527;45.618;5.130;2022-12-17T03:50:00;-1.20;99.90
48728;DHT22;34527;45.618;5.130;2022-12-17T03:52:44;-1.20;99.90
48728;DHT22;34527;45.618;5.130;2022-12-17T03:55:28;-1.20;99.90
48728;DHT22;34527;45.618;5.130;2022-12-17T03:58:12;-1.20;99.90
48728;DHT22;34527;45.618;5.130;2022-12-17T04:00:57;-1.20;99.90
48728;DHT22;34527;45.618;5.130;2022-12-17T04:03:41;-1.10;99.90
48728;DHT22;34527;45.618;5.130;2022-12-17T04:06:25;-1.20;99.90
48728;DHT22;34527;45.618;5.130;2022-12-17T04:09:09;-1.20;99.90
48728;DHT22;34527;45.618;5.130;2022-12-17T04:11:53;-1.30;99.90
48728;DHT22;34527;45.618;5.130;2022-12-17T04:14:37;-1.40;99.90
48728;DHT22;34527;45.618;5.130;2022-12-17T04:17:21;-1.40;99.90
48728;DHT22;34527;45.618;5.130;2022-12-17T04:20:06;-1.30;99.90
48728;DHT22;34527;45.618;5.130;2022-12-17T04:22:50;-1.30;99.90
48728;DHT22;34527;45.618;5.130;2022-12-17T04:25:35;-1.40;99.90
48728;DHT22;34527;45.618;5.130;2022-12-17T04:28:20;-1.40;99.90
48728;DHT22;34527;45.618;5.130;2022-12-17T04:31:04;-1.40;99.90
48728;DHT22;34527;45.618;5.130;2022-12-17T04:33:49;-1.50;99.90
48728;DHT22;34527;45.618;5.130;2022-12-17T04:36:33;-1.50;99.90
48728;DHT22;34527;45.618;5.130;2022-12-17T04:39:17;-1.50;99.90
48728;DHT22;34527;45.618;5.130;2022-12-17T04:42:01;-1.50;99.90
48728;DHT22;34527;45.618;5.130;2022-12-17T04:44:45;-1.50;99.90
48728;DHT22;34527;45.618;5.130;2022-12-17T04:47:29;-1.50;99.90
48728;DHT22;34527;45.618;5.130;2022-12-17T04:50:14;-1.50;99.90
48728;DHT22;34527;45.618;5.130;2022-12-17T04:53:02;-1.50;99.90
48728;DHT22;34527;45.618;5.130;2022-12-17T04:55:47;-1.60;99.90
48728;DHT22;34527;45.618;5.130;2022-12-17T04:58:32;-1.60;99.90
48728;DHT22;34527;45.618;5.130;2022-12-17T05:01:16;-1.60;99.90
48728;DHT22;34527;45.618;5.130;2022-12-17T05:04:00;-1.60;99.90
48728;DHT22;34527;45.618;5.130;2022-12-17T05:06:45;-1.50;99.90
48728;DHT22;34527;45.618;5.130;2022-12-17T05:09:29;-1.60;99.90
48728;DHT22;34527;45.618;5.130;2022-12-17T05:12:13;-1.60;99.90
48728;DHT22;34527;45.618;5.130;2022-12-17T05:14:58;-1.70;99.90
48728;DHT22;34527;45.618;5.130;2022-12-17T05:17:42;-1.70;99.90
48728;DHT22;34527;45.618;5.130;2022-12-17T05:20:26;-1.60;99.90
48728;DHT22;34527;45.618;5.130;2022-12-17T05:23:10;-1.70;99.90
48728;DHT22;34527;45.618;5.130;2022-12-17T05:26:21;-1.60;99.90
48728;DHT22;34527;45.618;5.130;2022-12-17T05:29:06;-1.70;99.90
48728;DHT22;34527;45.618;5.130;2022-12-17T05:31:50;-1.70;99.90
48728;DHT22;34527;45.618;5.130;2022-12-17T05:34:34;-1.70;99.90
48728;DHT22;34527;45.618;5.130;2022-12-17T05:37:19;-1.70;99.90
48728;DHT22;34527;45.618;5.130;2022-12-17T05:40:04;-1.70;99.90
48728;DHT22;34527;45.618;5.130;2022-12-17T05:45:40;-1.80;99.90
48728;DHT22;34527;45.618;5.130;2022-12-17T05:48:24;-1.70;99.90
48728;DHT22;34527;45.618;5.130;2022-12-17T05:51:08;-1.70;99.90
48728;DHT22;34527;45.618;5.130;2022-12-17T05:53:53;-1.80;99.90
48728;DHT22;34527;45.618;5.130;2022-12-17T05:56:37;-1.80;99.90
48728;DHT22;34527;45.618;5.130;2022-12-17T05:59:21;-1.80;99.90
48728;DHT22;34527;45.618;5.130;2022-12-17T06:02:06;-1.70;99.90
48728;DHT22;34527;45.618;5.130;2022-12-17T06:04:50;-1.70;99.90
48728;DHT22;34527;45.618;5.130;2022-12-17T06:07:35;-1.60;99.90
48728;DHT22;34527;45.618;5.130;2022-12-17T06:10:19;-1.60;99.90
48728;DHT22;34527;45.618;5.130;2022-12-17T06:13:03;-1.60;99.90
48728;DHT22;34527;45.618;5.130;2022-12-17T06:15:48;-1.60;99.90
48728;DHT22;34527;45.618;5.130;2022-12-17T06:18:34;-1.60;99.90
48728;DHT22;34527;45.618;5.130;2022-12-17T06:21:18;-1.60;99.90
48728;DHT22;34527;45.618;5.130;2022-12-17T06:24:02;-1.70;99.90
48728;DHT22;34527;45.618;5.130;2022-12-17T06:26:47;-1.60;99.90
48728;DHT22;34527;45.618;5.130;2022-12-17T06:29:31;-1.60;99.90
48728;DHT22;34527;45.618;5.130;2022-12-17T06:32:15;-1.60;99.90
48728;DHT22;34527;45.618;5.130;2022-12-17T06:34:59;-1.60;99.90
48728;DHT22;34527;45.618;5.130;2022-12-17T06:37:43;-1.60;99.90
48728;DHT22;34527;45.618;5.130;2022-12-17T06:40:27;-1.70;99.90
48728;DHT22;34527;45.618;5.130;2022-12-17T06:43:11;-1.60;99.90
48728;DHT22;34527;45.618;5.130;2022-12-17T06:45:55;-1.60;99.90
48728;DHT22;34527;45.618;5.130;2022-12-17T06:48:40;-1.60;99.90
48728;DHT22;34527;45.618;5.130;2022-12-17T06:51:24;-1.60;99.90
48728;DHT22;34527;45.618;5.130;2022-12-17T06:54:08;-1.70;99.90
48728;DHT22;34527;45.618;5.130;2022-12-17T06:56:53;-1.70;99.90
48728;DHT22;34527;45.618;5.130;2022-12-17T06:59:37;-1.70;99.90
48728;DHT22;34527;45.618;5.130;2022-12-17T07:02:21;-1.70;99.90
48728;DHT22;34527;45.618;5.130;2022-12-17T07:05:06;-1.80;99.90
48728;DHT22;34527;45.618;5.130;2022-12-17T07:07:58;-1.80;99.90
48728;DHT22;34527;45.618;5.130;2022-12-17T07:10:42;-1.80;99.90
48728;DHT22;34527;45.618;5.130;2022-12-17T07:13:27;-1.90;99.90
48728;DHT22;34527;45.618;5.130;2022-12-17T07:16:11;-1.90;99.90
48728;DHT22;34527;45.618;5.130;2022-12-17T07:18:55;-1.90;99.90
48728;DHT22;34527;45.618;5.130;2022-12-17T07:21:39;-1.90;99.90
48728;DHT22;34527;45.618;5.130;2022-12-17T07:24:40;-1.80;99.90
48728;DHT22;34527;45.618;5.130;2022-12-17T07:27:24;-1.80;99.90
48728;DHT22;34527;45.618;5.130;2022-12-17T07:30:09;-1.80;99.90
48728;DHT22;34527;45.618;5.130;2022-12-17T07:33:02;-1.80;99.90
48728;DHT22;34527;45.618;5.130;2022-12-17T07:35:46;-1.80;99.90
48728;DHT22;34527;45.618;5.130;2022-12-17T07:38:30;-1.80;99.90
48728;DHT22;34527;45.618;5.130;2022-12-17T07:41:15;-1.90;99.90
48728;DHT22;34527;45.618;5.130;2022-12-17T07:43:59;-1.90;99.90
48728;DHT22;34527;45.618;5.130;2022-12-17T07:46:43;-1.80;99.90
48728;DHT22;34527;45.618;5.130;2022-12-17T07:49:27;-1.80;99.90
48728;DHT22;34527;45.618;5.130;2022-12-17T07:52:11;-1.70;99.90
48728;DHT22;34527;45.618;5.130;2022-12-17T07:54:56;-1.70;99.90
48728;DHT22;34527;45.618;5.130;2022-12-17T07:57:40;-1.70;99.90
48728;DHT22;34527;45.618;5.130;2022-12-17T08:00:24;-1.70;99.90
48728;DHT22;34527;45.618;5.130;2022-12-17T08:03:09;-1.70;99.90
48728;DHT22;34527;45.618;5.130;2022-12-17T08:05:56;-1.70;99.90
48728;DHT22;34527;45.618;5.130;2022-12-17T08:08:41;-1.70;99.90
48728;DHT22;34527;45.618;5.130;2022-12-17T08:11:26;-1.70;99.90
48728;DHT22;34527;45.618;5.130;2022-12-17T08:14:10;-1.60;99.90
48728;DHT22;34527;45.618;5.130;2022-12-17T08:16:54;-1.70;99.90
48728;DHT22;34527;45.618;5.130;2022-12-17T08:19:38;-1.60;99.90
48728;DHT22;34527;45.618;5.130;2022-12-17T08:22:23;-1.60;99.90
48728;DHT22;34527;45.618;5.130;2022-12-17T08:25:07;-1.70;99.90
48728;DHT22;34527;45.618;5.130;2022-12-17T08:27:56;-1.70;99.90
48728;DHT22;34527;45.618;5.130;2022-12-17T08:30:41;-1.60;99.90
48728;DHT22;34527;45.618;5.130;2022-12-17T08:33:26;-1.60;99.90
48728;DHT22;34527;45.618;5.130;2022-12-17T08:36:10;-1.60;99.90
48728;DHT22;34527;45.618;5.130;2022-12-17T08:39:05;-1.70;99.90
48728;DHT22;34527;45.618;5.130;2022-12-17T08:41:49;-1.60;99.90
48728;DHT22;34527;45.618;5.130;2022-12-17T08:44:34;-1.50;99.90
48728;DHT22;34527;45.618;5.130;2022-12-17T08:47:18;-1.50;99.90
48728;DHT22;34527;45.618;5.130;2022-12-17T08:50:03;-1.50;99.90
48728;DHT22;34527;45.618;5.130;2022-12-17T08:52:59;-1.50;99.90
48728;DHT22;34527;45.618;5.130;2022-12-17T08:55:44;-1.40;99.90
48728;DHT22;34527;45.618;5.130;2022-12-17T08:58:28;-1.50;99.90
48728;DHT22;34527;45.618;5.130;2022-12-17T09:01:12;-1.40;99.90
48728;DHT22;34527;45.618;5.130;2022-12-17T09:03:56;-1.50;99.90
48728;DHT22;34527;45.618;5.130;2022-12-17T09:06:40;-1.40;99.90
48728;DHT22;34527;45.618;5.130;2022-12-17T09:09:24;-1.40;99.90
48728;DHT22;34527;45.618;5.130;2022-12-17T09:12:08;-1.40;99.90
48728;DHT22;34527;45.618;5.130;2022-12-17T09:14:52;-1.50;99.90
48728;DHT22;34527;45.618;5.130;2022-12-17T09:17:36;-1.50;99.90
48728;DHT22;34527;45.618;5.130;2022-12-17T09:20:20;-1.40;99.90
48728;DHT22;34527;45.618;5.130;2022-12-17T09:23:05;-1.40;99.90
48728;DHT22;34527;45.618;5.130;2022-12-17T09:25:56;-1.40;99.90
48728;DHT22;34527;45.618;5.130;2022-12-17T09:28:41;-1.40;99.90
48728;DHT22;34527;45.618;5.130;2022-12-17T09:31:25;-1.40;99.90
48728;DHT22;34527;45.618;5.130;2022-12-17T09:34:09;-1.30;99.90
48728;DHT22;34527;45.618;5.130;2022-12-17T09:36:54;-1.40;99.90
48728;DHT22;34527;45.618;5.130;2022-12-17T09:39:38;-1.30;99.90
48728;DHT22;34527;45.618;5.130;2022-12-17T09:42:40;-1.30;99.90
48728;DHT22;34527;45.618;5.130;2022-12-17T09:48:45;-1.30;99.90
48728;DHT22;34527;45.618;5.130;2022-12-17T09:51:36;-1.30;99.90
48728;DHT22;34527;45.618;5.130;2022-12-17T09:54:34;-1.30;99.90
48728;DHT22;34527;45.618;5.130;2022-12-17T09:57:23;-1.20;99.90
48728;DHT22;34527;45.618;5.130;2022-12-17T10:00:23;-1.30;99.90
48728;DHT22;34527;45.618;5.130;2022-12-17T10:03:19;-1.20;99.90
48728;DHT22;34527;45.618;5.130;2022-12-17T10:06:18;-1.20;99.90
48728;DHT22;34527;45.618;5.130;2022-12-17T10:09:13;-1.20;99.90
48728;DHT22;34527;45.618;5.130;2022-12-17T10:12:18;-1.20;99.90
48728;DHT22;34527;45.618;5.130;2022-12-17T10:15:04;-1.30;99.90
48728;DHT22;34527;45.618;5.130;2022-12-17T10:17:49;-1.30;99.90
48728;DHT22;34527;45.618;5.130;2022-12-17T10:20:45;-1.30;99.90
48728;DHT22;34527;45.618;5.130;2022-12-17T10:23:32;-1.30;99.90
48728;DHT22;34527;45.618;5.130;2022-12-17T10:26:22;-1.20;99.90
48728;DHT22;34527;45.618;5.130;2022-12-17T10:29:16;-1.30;99.90
48728;DHT22;34527;45.618;5.130;2022-12-17T10:32:28;-1.20;99.90
48728;DHT22;34527;45.618;5.130;2022-12-17T10:35:26;-1.20;99.90
48728;DHT22;34527;45.618;5.130;2022-12-17T10:38:26;-1.30;99.90
48728;DHT22;34527;45.618;5.130;2022-12-17T10:41:34;-1.20;99.90
48728;DHT22;34527;45.618;5.130;2022-12-17T10:44:26;-1.20;99.90
48728;DHT22;34527;45.618;5.130;2022-12-17T10:47:16;-1.10;99.90
48728;DHT22;34527;45.618;5.130;2022-12-17T10:50:08;-1.20;99.90
48728;DHT22;34527;45.618;5.130;2022-12-17T10:52:52;-1.10;99.90
48728;DHT22;34527;45.618;5.130;2022-12-17T10:55:49;-1.20;99.90
48728;DHT22;34527;45.618;5.130;2022-12-17T10:58:35;-1.10;99.90
48728;DHT22;34527;45.618;5.130;2022-12-17T11:01:24;-1.20;99.90
48728;DHT22;34527;45.618;5.130;2022-12-17T11:07:47;-1.20;99.90
48728;DHT22;34527;45.618;5.130;2022-12-17T11:10:28;-1.20;99.90
48728;DHT22;34527;45.618;5.130;2022-12-17T11:16:43;-1.20;99.90
48728;DHT22;34527;45.618;5.130;2022-12-17T11:22:51;-1.00;99.90
48728;DHT22;34527;45.618;5.130;2022-12-17T11:25:55;-1.00;99.90
48728;DHT22;34527;45.618;5.130;2022-12-17T11:28:43;-1.00;99.90
48728;DHT22;34527;45.618;5.130;2022-12-17T11:37:43;-1.10;99.90
48728;DHT22;34527;45.618;5.130;2022-12-17T11:40:44;-1.00;99.90
48728;DHT22;34527;45.618;5.130;2022-12-17T11:46:34;-1.00;99.90
48728;DHT22;34527;45.618;5.130;2022-12-17T11:58:21;-1.00;99.90
48728;DHT22;34527;45.618;5.130;2022-12-17T12:04:39;-1.00;99.90
48728;DHT22;34527;45.618;5.130;2022-12-17T12:13:43;-1.10;99.90
48728;DHT22;34527;45.618;5.130;2022-12-17T12:20:01;-1.00;99.90
48728;DHT22;34527;45.618;5.130;2022-12-17T12:23:11;-0.90;99.90
48728;DHT22;34527;45.618;5.130;2022-12-17T12:26:14;-1.00;99.90
48728;DHT22;34527;45.618;5.130;2022-12-17T12:32:33;-0.80;99.90
48728;DHT22;34527;45.618;5.130;2022-12-17T12:35:22;-0.70;99.90
48728;DHT22;34527;45.618;5.130;2022-12-17T12:38:18;-0.80;99.90
48728;DHT22;34527;45.618;5.130;2022-12-17T12:41:16;-0.70;99.90
48728;DHT22;34527;45.618;5.130;2022-12-17T12:44:14;-0.80;99.90
48728;DHT22;34527;45.618;5.130;2022-12-17T12:47:08;-0.80;99.90
48728;DHT22;34527;45.618;5.130;2022-12-17T12:53:34;-0.60;99.90
48728;DHT22;34527;45.618;5.130;2022-12-17T12:56:35;-0.70;99.90
48728;DHT22;34527;45.618;5.130;2022-12-17T13:02:27;-0.70;99.90
48728;DHT22;34527;45.618;5.130;2022-12-17T13:05:36;-0.80;99.90
48728;DHT22;34527;45.618;5.130;2022-12-17T13:10:35;-0.70;99.90
48728;DHT22;34527;45.618;5.130;2022-12-17T13:15:52;-0.60;99.90
48728;DHT22;34527;45.618;5.130;2022-12-17T13:18:32;-0.60;99.90
48728;DHT22;34527;45.618;5.130;2022-12-17T13:21:05;-0.50;99.90
48728;DHT22;34527;45.618;5.130;2022-12-17T13:23:47;-0.60;99.90
48728;DHT22;34527;45.618;5.130;2022-12-17T13:37:08;-0.40;99.90
48728;DHT22;34527;45.618;5.130;2022-12-17T13:42:34;-0.40;99.90
48728;DHT22;34527;45.618;5.130;2022-12-17T13:45:00;-0.40;99.90
48728;DHT22;34527;45.618;5.130;2022-12-17T13:47:29;-0.40;99.90
48728;DHT22;34527;45.618;5.130;2022-12-17T13:49:58;-0.30;99.90
48728;DHT22;34527;45.618;5.130;2022-12-17T13:52:26;-0.30;99.90
48728;DHT22;34527;45.618;5.130;2022-12-17T13:54:52;-0.20;99.90
48728;DHT22;34527;45.618;5.130;2022-12-17T13:57:23;-0.20;99.90
48728;DHT22;34527;45.618;5.130;2022-12-17T13:59:54;-0.20;99.90
48728;DHT22;34527;45.618;5.130;2022-12-17T14:02:32;-0.20;99.90
48728;DHT22;34527;45.618;5.130;2022-12-17T14:05:05;-0.20;99.90
48728;DHT22;34527;45.618;5.130;2022-12-17T14:07:33;-0.30;99.90
48728;DHT22;34527;45.618;5.130;2022-12-17T14:10:02;-0.20;99.90
48728;DHT22;34527;45.618;5.130;2022-12-17T14:12:28;-0.20;99.90
48728;DHT22;34527;45.618;5.130;2022-12-17T14:15:00;-0.20;99.90
48728;DHT22;34527;45.618;5.130;2022-12-17T14:17:36;-0.30;99.90
48728;DHT22;34527;45.618;5.130;2022-12-17T14:20:12;-0.30;99.90
48728;DHT22;34527;45.618;5.130;2022-12-17T14:22:44;-0.20;99.90
48728;DHT22;34527;45.618;5.130;2022-12-17T14:25:22;-0.20;99.90
48728;DHT22;34527;45.618;5.130;2022-12-17T14:27:59;-0.20;99.90
48728;DHT22;34527;45.618;5.130;2022-12-17T14:30:36;-0.20;99.90
48728;DHT22;34527;45.618;5.130;2022-12-17T14:33:03;-0.20;99.90
48728;DHT22;34527;45.618;5.130;2022-12-17T14:35:38;-0.20;99.90
48728;DHT22;34527;45.618;5.130;2022-12-17T14:38:04;-0.20;99.90
48728;DHT22;34527;45.618;5.130;2022-12-17T14:40:30;-0.20;99.90
48728;DHT22;34527;45.618;5.130;2022-12-17T14:43:00;-0.20;99.90
48728;DHT22;34527;45.618;5.130;2022-12-17T14:45:27;-0.30;99.90
48728;DHT22;34527;45.618;5.130;2022-12-17T14:47:58;-0.30;99.90
48728;DHT22;34527;45.618;5.130;2022-12-17T14:50:36;-0.30;99.90
48728;DHT22;34527;45.618;5.130;2022-12-17T14:53:22;-0.30;99.90
48728;DHT22;34527;45.618;5.130;2022-12-17T14:55:54;-0.30;99.90
48728;DHT22;34527;45.618;5.130;2022-12-17T14:58:22;-0.30;99.90
48728;DHT22;34527;45.618;5.130;2022-12-17T15:03:27;-0.40;99.90
48728;DHT22;34527;45.618;5.130;2022-12-17T15:06:12;-0.50;99.90
48728;DHT22;34527;45.618;5.130;2022-12-17T15:08:42;-0.50;99.90
48728;DHT22;34527;45.618;5.130;2022-12-17T15:11:14;-0.50;99.90
48728;DHT22;34527;45.618;5.130;2022-12-17T15:13:40;-0.50;99.90
48728;DHT22;34527;45.618;5.130;2022-12-17T15:16:06;-0.40;99.90
48728;DHT22;34527;45.618;5.130;2022-12-17T15:18:32;-0.40;99.90
48728;DHT22;34527;45.618;5.130;2022-12-17T15:20:58;-0.30;99.90
48728;DHT22;34527;45.618;5.130;2022-12-17T15:23:24;-0.10;99.90
48728;DHT22;34527;45.618;5.130;2022-12-17T15:25:52;-0.10;99.90
48728;DHT22;34527;45.618;5.130;2022-12-17T15:28:19;0.00;99.90
48728;DHT22;34527;45.618;5.130;2022-12-17T15:30:46;-0.10;99.90
48728;DHT22;34527;45.618;5.130;2022-12-17T15:33:12;-0.30;99.90
48728;DHT22;34527;45.618;5.130;2022-12-17T15:35:39;-0.30;99.90
48728;DHT22;34527;45.618;5.130;2022-12-17T15:38:06;-0.30;99.90
48728;DHT22;34527;45.618;5.130;2022-12-17T15:40:32;-0.10;99.90
48728;DHT22;34527;45.618;5.130;2022-12-17T15:42:58;0.00;99.90
48728;DHT22;34527;45.618;5.130;2022-12-17T15:48:06;-0.40;99.90
48728;DHT22;34527;45.618;5.130;2022-12-17T15:50:33;-0.40;99.90
48728;DHT22;34527;45.618;5.130;2022-12-17T15:52:59;-0.40;99.90
48728;DHT22;34527;45.618;5.130;2022-12-17T15:55:24;-0.40;99.90
48728;DHT22;34527;45.618;5.130;2022-12-17T15:57:50;-0.40;99.90
48728;DHT22;34527;45.618;5.130;2022-12-17T16:00:16;-0.40;99.90
48728;DHT22;34527;45.618;5.130;2022-12-17T16:02:42;-0.50;99.90
48728;DHT22;34527;45.618;5.130;2022-12-17T16:05:09;-0.40;99.90
48728;DHT22;34527;45.618;5.130;2022-12-17T16:07:35;-0.40;99.90
48728;DHT22;34527;45.618;5.130;2022-12-17T16:10:03;-0.50;99.90
48728;DHT22;34527;45.618;5.130;2022-12-17T16:12:29;-0.40;99.90
48728;DHT22;34527;45.618;5.130;2022-12-17T16:14:55;-0.50;99.90
48728;DHT22;34527;45.618;5.130;2022-12-17T16:17:21;-0.50;99.90
48728;DHT22;34527;45.618;5.130;2022-12-17T16:19:47;-0.40;99.90
48728;DHT22;34527;45.618;5.130;2022-12-17T16:22:13;-0.50;99.90
48728;DHT22;34527;45.618;5.130;2022-12-17T16:24:38;-0.40;99.90
48728;DHT22;34527;45.618;5.130;2022-12-17T16:27:06;-0.50;99.90
48728;DHT22;34527;45.618;5.130;2022-12-17T16:29:31;-0.40;99.90
48728;DHT22;34527;45.618;5.130;2022-12-17T16:31:58;-0.40;99.90
48728;DHT22;34527;45.618;5.130;2022-12-17T16:34:25;-0.30;99.90
48728;DHT22;34527;45.618;5.130;2022-12-17T16:36:51;-0.20;99.90
48728;DHT22;34527;45.618;5.130;2022-12-17T16:39:18;-0.20;99.90
48728;DHT22;34527;45.618;5.130;2022-12-17T16:41:44;-0.30;99.90
48728;DHT22;34527;45.618;5.130;2022-12-17T16:44:11;-0.30;99.90
48728;DHT22;34527;45.618;5.130;2022-12-17T16:46:39;-0.40;99.90
48728;DHT22;34527;45.618;5.130;2022-12-17T16:49:14;-0.50;99.90
48728;DHT22;34527;45.618;5.130;2022-12-17T16:51:41;-0.50;99.90
48728;DHT22;34527;45.618;5.130;2022-12-17T16:54:11;-0.50;99.90
48728;DHT22;34527;45.618;5.130;2022-12-17T16:56:38;-0.60;99.90
48728;DHT22;34527;45.618;5.130;2022-12-17T16:59:04;-0.60;99.90
48728;DHT22;34527;45.618;5.130;2022-12-17T17:01:33;-0.70;99.90
48728;DHT22;34527;45.618;5.130;2022-12-17T17:03:59;-0.70;99.90
48728;DHT22;34527;45.618;5.130;2022-12-17T17:06:25;-0.70;99.90
48728;DHT22;34527;45.618;5.130;2022-12-17T17:08:51;-0.80;99.90
48728;DHT22;34527;45.618;5.130;2022-12-17T17:11:22;-0.70;99.90
48728;DHT22;34527;45.618;5.130;2022-12-17T17:13:50;-0.70;99.90
48728;DHT22;34527;45.618;5.130;2022-12-17T17:16:18;-0.80;99.90
48728;DHT22;34527;45.618;5.130;2022-12-17T17:18:45;-0.80;99.90
48728;DHT22;34527;45.618;5.130;2022-12-17T17:21:34;-0.70;99.90
48728;DHT22;34527;45.618;5.130;2022-12-17T17:24:13;-0.80;99.90
48728;DHT22;34527;45.618;5.130;2022-12-17T17:26:40;-0.70;99.90
48728;DHT22;34527;45.618;5.130;2022-12-17T17:29:07;-0.70;99.90
48728;DHT22;34527;45.618;5.130;2022-12-17T17:31:35;-0.70;99.90
48728;DHT22;34527;45.618;5.130;2022-12-17T17:34:01;-0.80;99.90
48728;DHT22;34527;45.618;5.130;2022-12-17T17:36:32;-0.80;99.90
48728;DHT22;34527;45.618;5.130;2022-12-17T17:38:59;-0.80;99.90
48728;DHT22;34527;45.618;5.130;2022-12-17T17:41:27;-0.60;99.90
48728;DHT22;34527;45.618;5.130;2022-12-17T17:43:58;-0.70;99.90
48728;DHT22;34527;45.618;5.130;2022-12-17T17:46:25;-0.70;99.90
48728;DHT22;34527;45.618;5.130;2022-12-17T17:48:54;-0.70;99.90
48728;DHT22;34527;45.618;5.130;2022-12-17T17:51:22;-0.80;99.90
48728;DHT22;34527;45.618;5.130;2022-12-17T17:53:50;-0.80;99.90
48728;DHT22;34527;45.618;5.130;2022-12-17T17:56:19;-0.70;99.90
48728;DHT22;34527;45.618;5.130;2022-12-17T17:58:51;-0.80;99.90
48728;DHT22;34527;45.618;5.130;2022-12-17T18:01:19;-0.80;99.90
48728;DHT22;34527;45.618;5.130;2022-12-17T18:03:45;-0.80;99.90
48728;DHT22;34527;45.618;5.130;2022-12-17T18:06:12;-0.80;99.90
48728;DHT22;34527;45.618;5.130;2022-12-17T18:08:39;-0.90;99.90
48728;DHT22;34527;45.618;5.130;2022-12-17T18:11:07;-0.80;99.90
48728;DHT22;34527;45.618;5.130;2022-12-17T18:13:34;-0.90;99.90
48728;DHT22;34527;45.618;5.130;2022-12-17T18:16:18;-0.90;99.90
48728;DHT22;34527;45.618;5.130;2022-12-17T18:18:44;-0.90;99.90
48728;DHT22;34527;45.618;5.130;2022-12-17T18:21:13;-0.90;99.90
48728;DHT22;34527;45.618;5.130;2022-12-17T18:23:40;-0.90;99.90
48728;DHT22;34527;45.618;5.130;2022-12-17T18:26:13;-0.90;99.90
48728;DHT22;34527;45.618;5.130;2022-12-17T18:28:40;-1.00;99.90